Sao Nicolau — EA3912 — position and weather

sailwx.info

Track history (hours):
 
Tides and Currents Weather Stations Pressure Air Temp Water Temp Dewpoint Dewpoint Depression Visibility Wind Speed Wind Dir Waves Ship Positions

Sao Nicolau

Last reported at 2017-Sep-21 12:38 UTC. Time now 2017-Sep-22 11:51 UTC.
Position N 38°42' W 009°25'.

Length 15 m.

Type: Sailing vessel. MMSI: 224130680.

Date/timePositionNaut miles runAvg speedWind from/ knotsBaromVisibWave heightAir tempDewpointWater temp
2017-Sep-21 12:38N 38°42' W 009°25'0 0.0
2017-Sep-21 12:29N 38°42' W 009°25'1 1.2
2017-Sep-21 11:58N 38°41' W 009°26'1 1.2
2017-Sep-21 11:13N 38°42' W 009°25'1 4.5
2017-Sep-21 10:59N 38°41' W 009°25'0 0.4
2017-Sep-21 10:30N 38°41' W 009°26'1 1.2
2017-Sep-21 09:47N 38°42' W 009°25'0 0.0
2017-Sep-21 09:23N 38°42' W 009°25'0 0.0
2017-Sep-20 12:46N 38°42' W 009°25'0 0.3
2017-Sep-20 11:51N 38°42' W 009°25'1 1.7
2017-Sep-20 11:30N 38°41' W 009°25'2 3.2
2017-Sep-20 10:58N 38°41' W 009°27'1 3.1
2017-Sep-20 10:30N 38°41' W 009°25'0 0.5
2017-Sep-20 09:41N 38°42' W 009°25'0 0.0
2017-Sep-20 09:26N 38°42' W 009°25'0 0.0
2017-Sep-18 12:47N 38°42' W 009°25'0 0.5
2017-Sep-18 12:07N 38°42' W 009°25'0 0.0
2017-Sep-18 11:58N 38°42' W 009°25'1 1.6
2017-Sep-18 11:29N 38°41' W 009°25'2 3.4
2017-Sep-18 11:00N 38°42' W 009°23'1 2.2
2017-Sep-18 10:28N 38°42' W 009°25'0 0.1
2017-Sep-18 09:58N 38°42' W 009°25'0 0.0
2017-Sep-17 13:11N 38°42' W 009°25'0 0.0
2017-Sep-17 12:50N 38°42' W 009°25'0 0.0
2017-Sep-17 12:23N 38°42' W 009°25'2 4.1
2017-Sep-17 12:00N 38°41' W 009°23'1 2.6
2017-Sep-17 11:30N 38°40' W 009°24'3 5.7
2017-Sep-17 10:58N 38°40' W 009°20'3 5.3
2017-Sep-17 10:29N 38°41' W 009°23'2 0.0
2017-Sep-15 14:43N 38°42' W 009°25'0 0.0
2017-Sep-15 12:10N 38°42' W 009°25'1 2.8
2017-Sep-15 11:58N 38°41' W 009°24'1 2.2
2017-Sep-15 11:29N 38°41' W 009°24'1 1.2
2017-Sep-15 11:00N 38°40' W 009°23'1 1.4
2017-Sep-15 10:25N 38°41' W 009°23'2 3.6
2017-Sep-15 09:57N 38°42' W 009°25'0 0.0
2017-Sep-13 12:11N 38°42' W 009°25'0 1.5
2017-Sep-13 11:57N 38°42' W 009°25'0 0.0
2017-Sep-13 11:12N 38°42' W 009°25'1 4.1
2017-Sep-13 10:59N 38°41' W 009°25'0 0.9
2017-Sep-13 10:28N 38°41' W 009°25'1 0.8
2017-Sep-13 09:16N 38°42' W 009°25'0 0.0
2017-Sep-12 12:07N 38°42' W 009°25'0 3.6
2017-Sep-12 12:00N 38°42' W 009°24'2 4.0
2017-Sep-12 11:29N 38°41' W 009°27'4 6.6
2017-Sep-12 10:53N 38°41' W 009°21'2 5.6
2017-Sep-12 10:28N 38°42' W 009°24'1 1.2
2017-Sep-12 09:57N 38°42' W 009°25'0 0.0
2017-Sep-11 12:39N 38°42' W 009°25'  
Track history (hours):
 
Tides and Currents Weather Stations Pressure Air Temp Water Temp Dewpoint Dewpoint Depression Visibility Wind Speed Wind Dir Waves Ship Positions

Sao Nicolau

Last reported at 2017-Sep-21 12:38 UTC. Time now 2017-Sep-22 11:51 UTC.
Position N 38°42' W 009°25'.

Length 15 m.

Type: Sailing vessel. MMSI: 224130680.

Date/timePositionNaut miles runAvg speedWind from/ knotsBaromVisibWave heightAir tempDewpointWater temp
2017-Sep-21 12:38N 38°42' W 009°25'0 0.0
2017-Sep-21 12:29N 38°42' W 009°25'1 1.2
2017-Sep-21 11:58N 38°41' W 009°26'1 1.2
2017-Sep-21 11:13N 38°42' W 009°25'1 4.5
2017-Sep-21 10:59N 38°41' W 009°25'0 0.4
2017-Sep-21 10:30N 38°41' W 009°26'1 1.2
2017-Sep-21 09:47N 38°42' W 009°25'0 0.0
2017-Sep-21 09:23N 38°42' W 009°25'0 0.0
2017-Sep-20 12:46N 38°42' W 009°25'0 0.3
2017-Sep-20 11:51N 38°42' W 009°25'1 1.7
2017-Sep-20 11:30N 38°41' W 009°25'2 3.2
2017-Sep-20 10:58N 38°41' W 009°27'1 3.1
2017-Sep-20 10:30N 38°41' W 009°25'0 0.5
2017-Sep-20 09:41N 38°42' W 009°25'0 0.0
2017-Sep-20 09:26N 38°42' W 009°25'0 0.0
2017-Sep-18 12:47N 38°42' W 009°25'0 0.5
2017-Sep-18 12:07N 38°42' W 009°25'0 0.0
2017-Sep-18 11:58N 38°42' W 009°25'1 1.6
2017-Sep-18 11:29N 38°41' W 009°25'2 3.4
2017-Sep-18 11:00N 38°42' W 009°23'1 2.2
2017-Sep-18 10:28N 38°42' W 009°25'0 0.1
2017-Sep-18 09:58N 38°42' W 009°25'0 0.0
2017-Sep-17 13:11N 38°42' W 009°25'0 0.0
2017-Sep-17 12:50N 38°42' W 009°25'0 0.0
2017-Sep-17 12:23N 38°42' W 009°25'2 4.1
2017-Sep-17 12:00N 38°41' W 009°23'1 2.6
2017-Sep-17 11:30N 38°40' W 009°24'3 5.7
2017-Sep-17 10:58N 38°40' W 009°20'3 5.3
2017-Sep-17 10:29N 38°41' W 009°23'2 0.0
2017-Sep-15 14:43N 38°42' W 009°25'0 0.0
2017-Sep-15 12:10N 38°42' W 009°25'1 2.8
2017-Sep-15 11:58N 38°41' W 009°24'1 2.2
2017-Sep-15 11:29N 38°41' W 009°24'1 1.2
2017-Sep-15 11:00N 38°40' W 009°23'1 1.4
2017-Sep-15 10:25N 38°41' W 009°23'2 3.6
2017-Sep-15 09:57N 38°42' W 009°25'0 0.0
2017-Sep-13 12:11N 38°42' W 009°25'0 1.5
2017-Sep-13 11:57N 38°42' W 009°25'0 0.0
2017-Sep-13 11:12N 38°42' W 009°25'1 4.1
2017-Sep-13 10:59N 38°41' W 009°25'0 0.9
2017-Sep-13 10:28N 38°41' W 009°25'1 0.8
2017-Sep-13 09:16N 38°42' W 009°25'0 0.0
2017-Sep-12 12:07N 38°42' W 009°25'0 3.6
2017-Sep-12 12:00N 38°42' W 009°24'2 4.0
2017-Sep-12 11:29N 38°41' W 009°27'4 6.6
2017-Sep-12 10:53N 38°41' W 009°21'2 5.6
2017-Sep-12 10:28N 38°42' W 009°24'1 1.2
2017-Sep-12 09:57N 38°42' W 009°25'0 0.0
2017-Sep-11 12:39N 38°42' W 009°25'  

Dump ship's entire track history